sensor_id;sensor_type;location;lat;lon;timestamp;P1;durP1;ratioP1;P2;durP2;ratioP2
76125;SDS011;65174;48.138;21.002;2023-02-01T05:38:27;7.65;;;3.13;;
76125;SDS011;65174;48.138;21.002;2023-02-01T05:43:30;5.45;;;3.10;;
76125;SDS011;65174;48.138;21.002;2023-02-01T05:48:33;4.70;;;3.30;;
76125;SDS011;65174;48.138;21.002;2023-02-01T05:53:35;11.82;;;5.70;;
76125;SDS011;65174;48.138;21.002;2023-02-01T05:57:37;7.07;;;2.10;;
76125;SDS011;65174;48.138;21.002;2023-02-01T06:02:12;4.20;;;3.25;;
76125;SDS011;65174;48.138;21.002;2023-02-01T06:28:45;18.88;;;6.70;;
76125;SDS011;65174;48.138;21.002;2023-02-01T06:31:47;20.58;;;8.00;;
76125;SDS011;65174;48.138;21.002;2023-02-01T06:34:50;13.23;;;5.43;;
76125;SDS011;65174;48.138;21.002;2023-02-01T06:37:53;20.65;;;10.02;;
76125;SDS011;65174;48.138;21.002;2023-02-01T06:40:56;7.70;;;4.38;;
76125;SDS011;65174;48.138;21.002;2023-02-01T06:43:59;15.63;;;5.40;;
76125;SDS011;65174;48.138;21.002;2023-02-01T06:47:02;6.03;;;3.35;;
76125;SDS011;65174;48.138;21.002;2023-02-01T06:50:09;7.50;;;3.87;;
76125;SDS011;65174;48.138;21.002;2023-02-01T06:53:11;7.05;;;3.80;;
76125;SDS011;65174;48.138;21.002;2023-02-01T06:56:13;16.13;;;7.15;;
76125;SDS011;65174;48.138;21.002;2023-02-01T06:59:15;10.43;;;5.28;;
76125;SDS011;65174;48.138;21.002;2023-02-01T07:02:18;11.00;;;5.13;;
76125;SDS011;65174;48.138;21.002;2023-02-01T07:05:20;10.80;;;6.27;;
76125;SDS011;65174;48.138;21.002;2023-02-01T07:08:22;14.05;;;6.95;;
76125;SDS011;65174;48.138;21.002;2023-02-01T07:11:24;29.00;;;11.00;;
76125;SDS011;65174;48.138;21.002;2023-02-01T07:14:29;22.15;;;9.15;;
76125;SDS011;65174;48.138;21.002;2023-02-01T07:17:31;17.13;;;6.90;;
76125;SDS011;65174;48.138;21.002;2023-02-01T07:20:33;9.33;;;4.80;;
76125;SDS011;65174;48.138;21.002;2023-02-01T07:23:35;11.65;;;4.57;;
76125;SDS011;65174;48.138;21.002;2023-02-01T07:26:37;7.28;;;3.53;;
76125;SDS011;65174;48.138;21.002;2023-02-01T07:29:39;7.78;;;3.80;;
76125;SDS011;65174;48.138;21.002;2023-02-01T07:36:30;4.63;;;3.40;;
76125;SDS011;65174;48.138;21.002;2023-02-01T07:39:32;5.32;;;2.70;;
76125;SDS011;65174;48.138;21.002;2023-02-01T07:42:34;9.55;;;4.70;;
76125;SDS011;65174;48.138;21.002;2023-02-01T07:45:36;7.28;;;4.10;;
76125;SDS011;65174;48.138;21.002;2023-02-01T07:48:38;6.93;;;4.35;;
76125;SDS011;65174;48.138;21.002;2023-02-01T07:51:41;8.37;;;4.70;;
76125;SDS011;65174;48.138;21.002;2023-02-01T07:54:43;7.07;;;4.60;;
76125;SDS011;65174;48.138;21.002;2023-02-01T07:57:45;13.70;;;6.38;;
76125;SDS011;65174;48.138;21.002;2023-02-01T08:00:47;6.13;;;3.85;;
76125;SDS011;65174;48.138;21.002;2023-02-01T08:04:08;7.63;;;3.10;;
76125;SDS011;65174;48.138;21.002;2023-02-01T08:07:14;4.93;;;2.67;;
76125;SDS011;65174;48.138;21.002;2023-02-01T08:10:16;7.70;;;4.05;;
76125;SDS011;65174;48.138;21.002;2023-02-01T08:13:19;7.57;;;3.38;;
76125;SDS011;65174;48.138;21.002;2023-02-01T08:16:22;8.02;;;6.47;;
76125;SDS011;65174;48.138;21.002;2023-02-01T08:19:25;8.38;;;3.97;;
76125;SDS011;65174;48.138;21.002;2023-02-01T08:22:31;4.10;;;2.70;;
76125;SDS011;65174;48.138;21.002;2023-02-01T08:25:33;5.75;;;3.30;;
76125;SDS011;65174;48.138;21.002;2023-02-01T08:28:37;6.35;;;3.03;;
76125;SDS011;65174;48.138;21.002;2023-02-01T08:31:40;9.77;;;4.10;;
76125;SDS011;65174;48.138;21.002;2023-02-01T08:34:43;8.00;;;3.95;;
76125;SDS011;65174;48.138;21.002;2023-02-01T08:37:45;6.73;;;4.10;;
76125;SDS011;65174;48.138;21.002;2023-02-01T08:40:47;5.45;;;3.55;;
76125;SDS011;65174;48.138;21.002;2023-02-01T08:43:49;7.20;;;4.07;;
76125;SDS011;65174;48.138;21.002;2023-02-01T08:46:52;8.00;;;3.80;;
76125;SDS011;65174;48.138;21.002;2023-02-01T08:49:54;6.95;;;3.78;;
76125;SDS011;65174;48.138;21.002;2023-02-01T08:52:56;5.80;;;3.27;;
76125;SDS011;65174;48.138;21.002;2023-02-01T08:55:58;8.10;;;4.53;;
76125;SDS011;65174;48.138;21.002;2023-02-01T08:59:00;6.43;;;3.40;;
76125;SDS011;65174;48.138;21.002;2023-02-01T09:02:02;4.88;;;2.88;;
76125;SDS011;65174;48.138;21.002;2023-02-01T09:05:04;5.13;;;2.90;;
76125;SDS011;65174;48.138;21.002;2023-02-01T09:08:07;5.57;;;2.70;;
76125;SDS011;65174;48.138;21.002;2023-02-01T09:11:11;5.93;;;2.92;;
76125;SDS011;65174;48.138;21.002;2023-02-01T09:14:16;7.28;;;3.45;;
76125;SDS011;65174;48.138;21.002;2023-02-01T09:17:18;6.38;;;2.80;;
76125;SDS011;65174;48.138;21.002;2023-02-01T09:20:20;6.50;;;3.72;;
76125;SDS011;65174;48.138;21.002;2023-02-01T09:23:26;8.70;;;3.97;;
76125;SDS011;65174;48.138;21.002;2023-02-01T09:26:28;7.88;;;4.80;;
76125;SDS011;65174;48.138;21.002;2023-02-01T09:29:33;9.88;;;4.97;;
76125;SDS011;65174;48.138;21.002;2023-02-01T09:32:35;8.27;;;4.88;;
76125;SDS011;65174;48.138;21.002;2023-02-01T09:35:37;9.30;;;5.18;;
76125;SDS011;65174;48.138;21.002;2023-02-01T09:38:39;10.27;;;5.00;;
76125;SDS011;65174;48.138;21.002;2023-02-01T09:41:57;6.43;;;4.15;;
76125;SDS011;65174;48.138;21.002;2023-02-01T09:48:35;10.13;;;3.30;;
76125;SDS011;65174;48.138;21.002;2023-02-01T11:20:21;1.67;;;1.27;;
76125;SDS011;65174;48.138;21.002;2023-02-01T11:25:47;4.28;;;1.60;;
76125;SDS011;65174;48.138;21.002;2023-02-01T11:31:05;10.13;;;3.97;;
76125;SDS011;65174;48.138;21.002;2023-02-01T11:35:43;5.10;;;2.95;;
76125;SDS011;65174;48.138;21.002;2023-02-01T12:02:02;2.33;;;1.30;;
76125;SDS011;65174;48.138;21.002;2023-02-01T12:15:21;6.78;;;3.38;;
76125;SDS011;65174;48.138;21.002;2023-02-01T12:36:51;3.57;;;1.67;;
76125;SDS011;65174;48.138;21.002;2023-02-01T12:46:40;4.70;;;1.58;;
76125;SDS011;65174;48.138;21.002;2023-02-01T12:53:28;3.17;;;1.20;;
76125;SDS011;65174;48.138;21.002;2023-02-01T12:56:54;3.50;;;1.20;;
76125;SDS011;65174;48.138;21.002;2023-02-01T13:00:07;3.45;;;1.50;;
76125;SDS011;65174;48.138;21.002;2023-02-01T13:03:29;2.85;;;1.25;;
76125;SDS011;65174;48.138;21.002;2023-02-01T13:06:48;5.40;;;1.58;;
76125;SDS011;65174;48.138;21.002;2023-02-01T13:10:18;2.87;;;1.67;;
76125;SDS011;65174;48.138;21.002;2023-02-01T13:13:48;3.15;;;1.27;;
76125;SDS011;65174;48.138;21.002;2023-02-01T13:16:59;4.18;;;1.30;;
76125;SDS011;65174;48.138;21.002;2023-02-01T13:23:27;6.97;;;2.70;;
76125;SDS011;65174;48.138;21.002;2023-02-01T13:27:26;4.13;;;1.40;;
76125;SDS011;65174;48.138;21.002;2023-02-01T13:38:26;107.07;;;23.88;;
76125;SDS011;65174;48.138;21.002;2023-02-01T13:44:28;39.87;;;10.13;;
76125;SDS011;65174;48.138;21.002;2023-02-01T13:47:40;65.55;;;15.48;;
76125;SDS011;65174;48.138;21.002;2023-02-01T13:50:49;59.05;;;17.75;;
76125;SDS011;65174;48.138;21.002;2023-02-01T13:53:53;57.78;;;17.50;;
76125;SDS011;65174;48.138;21.002;2023-02-01T13:56:55;35.13;;;12.48;;
76125;SDS011;65174;48.138;21.002;2023-02-01T14:00:34;22.67;;;8.93;;
76125;SDS011;65174;48.138;21.002;2023-02-01T14:03:45;30.80;;;9.82;;
76125;SDS011;65174;48.138;21.002;2023-02-01T14:06:49;63.38;;;17.83;;
76125;SDS011;65174;48.138;21.002;2023-02-01T14:13:45;78.50;;;21.00;;
76125;SDS011;65174;48.138;21.002;2023-02-01T14:20:36;17.98;;;6.57;;
76125;SDS011;65174;48.138;21.002;2023-02-01T14:23:42;9.60;;;3.03;;
76125;SDS011;65174;48.138;21.002;2023-02-01T14:26:46;6.32;;;3.35;;
76125;SDS011;65174;48.138;21.002;2023-02-01T14:30:00;9.25;;;2.63;;
76125;SDS011;65174;48.138;21.002;2023-02-01T14:33:41;5.63;;;3.10;;
76125;SDS011;65174;48.138;21.002;2023-02-01T14:36:39;12.10;;;5.13;;
76125;SDS011;65174;48.138;21.002;2023-02-01T14:42:48;7.40;;;3.63;;
76125;SDS011;65174;48.138;21.002;2023-02-01T14:53:30;4.30;;;2.30;;
76125;SDS011;65174;48.138;21.002;2023-02-01T14:56:35;19.40;;;8.55;;
76125;SDS011;65174;48.138;21.002;2023-02-01T14:59:37;14.32;;;5.95;;
76125;SDS011;65174;48.138;21.002;2023-02-01T15:02:39;16.40;;;6.35;;
76125;SDS011;65174;48.138;21.002;2023-02-01T15:05:42;9.57;;;3.67;;
76125;SDS011;65174;48.138;21.002;2023-02-01T15:08:44;4.32;;;2.40;;
76125;SDS011;65174;48.138;21.002;2023-02-01T15:18:26;5.20;;;3.13;;
76125;SDS011;65174;48.138;21.002;2023-02-01T15:21:28;6.23;;;1.50;;
76125;SDS011;65174;48.138;21.002;2023-02-01T15:24:33;2.22;;;1.33;;
76125;SDS011;65174;48.138;21.002;2023-02-01T15:27:35;3.35;;;1.10;;
76125;SDS011;65174;48.138;21.002;2023-02-01T15:31:30;2.38;;;1.00;;
76125;SDS011;65174;48.138;21.002;2023-02-01T15:34:48;2.03;;;1.27;;
76125;SDS011;65174;48.138;21.002;2023-02-01T15:37:51;1.80;;;1.20;;
76125;SDS011;65174;48.138;21.002;2023-02-01T15:44:10;4.03;;;1.98;;
76125;SDS011;65174;48.138;21.002;2023-02-01T15:47:24;7.32;;;3.70;;
76125;SDS011;65174;48.138;21.002;2023-02-01T15:50:30;7.45;;;3.78;;
76125;SDS011;65174;48.138;21.002;2023-02-01T15:53:33;3.83;;;2.03;;
76125;SDS011;65174;48.138;21.002;2023-02-01T15:56:36;3.20;;;1.75;;
76125;SDS011;65174;48.138;21.002;2023-02-01T15:59:42;2.05;;;1.38;;
76125;SDS011;65174;48.138;21.002;2023-02-01T16:02:54;3.03;;;0.90;;
76125;SDS011;65174;48.138;21.002;2023-02-01T16:06:00;3.72;;;1.80;;
76125;SDS011;65174;48.138;21.002;2023-02-01T16:09:10;3.30;;;1.10;;
76125;SDS011;65174;48.138;21.002;2023-02-01T16:12:21;4.93;;;1.60;;
76125;SDS011;65174;48.138;21.002;2023-02-01T16:15:36;1.50;;;1.10;;
76125;SDS011;65174;48.138;21.002;2023-02-01T16:18:38;2.33;;;1.23;;
76125;SDS011;65174;48.138;21.002;2023-02-01T16:21:40;3.72;;;1.83;;
76125;SDS011;65174;48.138;21.002;2023-02-01T16:24:42;2.50;;;0.90;;
76125;SDS011;65174;48.138;21.002;2023-02-01T16:27:44;1.50;;;1.20;;
76125;SDS011;65174;48.138;21.002;2023-02-01T16:30:47;4.18;;;2.25;;
76125;SDS011;65174;48.138;21.002;2023-02-01T16:33:50;7.22;;;2.70;;
76125;SDS011;65174;48.138;21.002;2023-02-01T16:36:53;10.70;;;4.40;;
76125;SDS011;65174;48.138;21.002;2023-02-01T16:39:58;9.17;;;3.87;;
76125;SDS011;65174;48.138;21.002;2023-02-01T16:43:00;12.90;;;5.38;;
76125;SDS011;65174;48.138;21.002;2023-02-01T16:46:02;15.10;;;4.10;;
76125;SDS011;65174;48.138;21.002;2023-02-01T16:49:04;16.98;;;5.22;;
76125;SDS011;65174;48.138;21.002;2023-02-01T16:52:08;14.70;;;5.50;;
76125;SDS011;65174;48.138;21.002;2023-02-01T16:55:16;14.57;;;4.97;;
76125;SDS011;65174;48.138;21.002;2023-02-01T16:58:20;11.15;;;4.30;;
76125;SDS011;65174;48.138;21.002;2023-02-01T17:01:22;27.33;;;8.57;;
76125;SDS011;65174;48.138;21.002;2023-02-01T17:04:25;14.88;;;5.40;;
76125;SDS011;65174;48.138;21.002;2023-02-01T17:07:27;13.85;;;5.88;;
76125;SDS011;65174;48.138;21.002;2023-02-01T17:10:29;17.30;;;5.13;;
76125;SDS011;65174;48.138;21.002;2023-02-01T17:13:35;32.95;;;8.63;;
76125;SDS011;65174;48.138;21.002;2023-02-01T17:16:37;30.95;;;10.23;;
76125;SDS011;65174;48.138;21.002;2023-02-01T17:19:39;26.95;;;9.43;;
76125;SDS011;65174;48.138;21.002;2023-02-01T17:22:42;10.68;;;5.75;;
76125;SDS011;65174;48.138;21.002;2023-02-01T17:25:44;2.73;;;2.13;;
76125;SDS011;65174;48.138;21.002;2023-02-01T17:28:46;3.40;;;1.70;;
76125;SDS011;65174;48.138;21.002;2023-02-01T17:31:50;3.42;;;1.75;;
76125;SDS011;65174;48.138;21.002;2023-02-01T17:34:53;4.18;;;2.20;;
76125;SDS011;65174;48.138;21.002;2023-02-01T17:37:56;4.47;;;2.17;;
76125;SDS011;65174;48.138;21.002;2023-02-01T17:40:58;2.83;;;2.30;;
76125;SDS011;65174;48.138;21.002;2023-02-01T17:44:00;4.90;;;2.20;;
76125;SDS011;65174;48.138;21.002;2023-02-01T17:47:03;3.22;;;2.58;;
76125;SDS011;65174;48.138;21.002;2023-02-01T17:50:06;6.65;;;3.63;;
76125;SDS011;65174;48.138;21.002;2023-02-01T17:53:09;5.80;;;3.50;;
76125;SDS011;65174;48.138;21.002;2023-02-01T17:56:15;4.77;;;3.13;;
76125;SDS011;65174;48.138;21.002;2023-02-01T17:59:19;7.70;;;3.45;;
76125;SDS011;65174;48.138;21.002;2023-02-01T18:02:22;8.48;;;3.85;;
76125;SDS011;65174;48.138;21.002;2023-02-01T18:05:26;7.82;;;3.85;;
76125;SDS011;65174;48.138;21.002;2023-02-01T18:08:42;7.03;;;3.40;;
76125;SDS011;65174;48.138;21.002;2023-02-01T18:11:44;4.27;;;2.93;;
76125;SDS011;65174;48.138;21.002;2023-02-01T18:14:47;5.10;;;3.30;;
76125;SDS011;65174;48.138;21.002;2023-02-01T18:17:49;6.05;;;3.20;;
76125;SDS011;65174;48.138;21.002;2023-02-01T18:20:51;3.55;;;2.10;;
76125;SDS011;65174;48.138;21.002;2023-02-01T18:23:54;6.80;;;2.75;;
76125;SDS011;65174;48.138;21.002;2023-02-01T18:26:56;3.87;;;2.13;;
76125;SDS011;65174;48.138;21.002;2023-02-01T18:30:00;2.72;;;1.80;;
76125;SDS011;65174;48.138;21.002;2023-02-01T18:33:02;5.65;;;2.22;;
76125;SDS011;65174;48.138;21.002;2023-02-01T18:36:04;8.45;;;3.70;;
76125;SDS011;65174;48.138;21.002;2023-02-01T18:39:07;8.57;;;5.22;;
76125;SDS011;65174;48.138;21.002;2023-02-01T18:42:13;13.53;;;5.90;;
76125;SDS011;65174;48.138;21.002;2023-02-01T18:45:23;7.65;;;4.05;;
76125;SDS011;65174;48.138;21.002;2023-02-01T18:48:28;13.88;;;5.90;;
76125;SDS011;65174;48.138;21.002;2023-02-01T18:51:34;8.02;;;4.40;;
76125;SDS011;65174;48.138;21.002;2023-02-01T18:54:36;9.30;;;4.55;;
76125;SDS011;65174;48.138;21.002;2023-02-01T18:57:51;6.13;;;3.60;;
76125;SDS011;65174;48.138;21.002;2023-02-01T19:00:54;5.07;;;2.67;;
76125;SDS011;65174;48.138;21.002;2023-02-01T19:03:57;6.05;;;2.47;;
76125;SDS011;65174;48.138;21.002;2023-02-01T19:07:14;4.65;;;2.65;;
76125;SDS011;65174;48.138;21.002;2023-02-01T19:10:17;5.35;;;3.00;;
76125;SDS011;65174;48.138;21.002;2023-02-01T19:13:23;5.73;;;2.43;;
76125;SDS011;65174;48.138;21.002;2023-02-01T19:16:29;8.70;;;1.88;;
76125;SDS011;65174;48.138;21.002;2023-02-01T19:19:31;4.65;;;2.10;;
76125;SDS011;65174;48.138;21.002;2023-02-01T19:22:34;4.13;;;2.22;;
76125;SDS011;65174;48.138;21.002;2023-02-01T19:25:37;3.03;;;1.70;;
76125;SDS011;65174;48.138;21.002;2023-02-01T19:28:39;4.80;;;1.93;;
76125;SDS011;65174;48.138;21.002;2023-02-01T19:31:42;1.58;;;1.48;;
76125;SDS011;65174;48.138;21.002;2023-02-01T19:34:47;2.55;;;1.90;;
76125;SDS011;65174;48.138;21.002;2023-02-01T19:38:01;7.85;;;3.08;;
76125;SDS011;65174;48.138;21.002;2023-02-01T19:41:03;5.13;;;2.83;;
76125;SDS011;65174;48.138;21.002;2023-02-01T19:44:06;7.33;;;1.93;;
76125;SDS011;65174;48.138;21.002;2023-02-01T19:47:08;3.47;;;2.28;;
76125;SDS011;65174;48.138;21.002;2023-02-01T19:50:15;2.97;;;2.25;;
76125;SDS011;65174;48.138;21.002;2023-02-01T19:53:22;2.40;;;2.10;;
76125;SDS011;65174;48.138;21.002;2023-02-01T19:56:29;3.88;;;2.47;;
76125;SDS011;65174;48.138;21.002;2023-02-01T19:59:31;7.60;;;3.80;;
76125;SDS011;65174;48.138;21.002;2023-02-01T20:02:34;3.35;;;1.92;;
76125;SDS011;65174;48.138;21.002;2023-02-01T20:05:36;3.92;;;2.40;;
76125;SDS011;65174;48.138;21.002;2023-02-01T20:08:39;5.43;;;3.42;;
76125;SDS011;65174;48.138;21.002;2023-02-01T20:11:41;4.93;;;3.03;;
76125;SDS011;65174;48.138;21.002;2023-02-01T20:14:43;9.47;;;3.37;;
76125;SDS011;65174;48.138;21.002;2023-02-01T20:17:45;5.95;;;2.85;;
76125;SDS011;65174;48.138;21.002;2023-02-01T20:20:47;5.28;;;3.20;;
76125;SDS011;65174;48.138;21.002;2023-02-01T20:23:49;4.90;;;2.20;;
76125;SDS011;65174;48.138;21.002;2023-02-01T20:26:51;3.50;;;2.25;;
76125;SDS011;65174;48.138;21.002;2023-02-01T20:29:54;4.20;;;2.00;;
76125;SDS011;65174;48.138;21.002;2023-02-01T20:32:56;4.97;;;2.35;;
76125;SDS011;65174;48.138;21.002;2023-02-01T20:35:58;3.60;;;2.03;;
76125;SDS011;65174;48.138;21.002;2023-02-01T20:39:00;4.90;;;2.60;;
76125;SDS011;65174;48.138;21.002;2023-02-01T20:42:03;4.15;;;2.22;;
76125;SDS011;65174;48.138;21.002;2023-02-01T20:45:05;4.60;;;2.60;;
76125;SDS011;65174;48.138;21.002;2023-02-01T20:48:08;5.50;;;2.88;;
76125;SDS011;65174;48.138;21.002;2023-02-01T20:51:12;11.20;;;4.05;;
76125;SDS011;65174;48.138;21.002;2023-02-01T20:54:15;8.32;;;4.75;;
76125;SDS011;65174;48.138;21.002;2023-02-01T20:57:17;9.73;;;4.97;;
76125;SDS011;65174;48.138;21.002;2023-02-01T21:00:20;6.60;;;3.83;;
76125;SDS011;65174;48.138;21.002;2023-02-01T21:03:28;12.07;;;3.83;;
76125;SDS011;65174;48.138;21.002;2023-02-01T21:06:30;8.32;;;3.58;;
76125;SDS011;65174;48.138;21.002;2023-02-01T21:09:36;7.45;;;3.25;;
76125;SDS011;65174;48.138;21.002;2023-02-01T21:12:41;4.22;;;2.53;;
76125;SDS011;65174;48.138;21.002;2023-02-01T21:15:43;4.20;;;2.20;;
76125;SDS011;65174;48.138;21.002;2023-02-01T21:18:49;5.18;;;2.40;;
76125;SDS011;65174;48.138;21.002;2023-02-01T21:21:54;5.43;;;2.70;;
76125;SDS011;65174;48.138;21.002;2023-02-01T21:24:56;3.83;;;2.35;;
76125;SDS011;65174;48.138;21.002;2023-02-01T21:27:58;3.60;;;1.75;;
76125;SDS011;65174;48.138;21.002;2023-02-01T21:31:00;2.20;;;1.60;;
76125;SDS011;65174;48.138;21.002;2023-02-01T21:34:02;4.75;;;1.80;;
76125;SDS011;65174;48.138;21.002;2023-02-01T21:37:05;4.63;;;1.98;;
76125;SDS011;65174;48.138;21.002;2023-02-01T21:40:07;3.83;;;2.28;;
76125;SDS011;65174;48.138;21.002;2023-02-01T21:43:10;5.00;;;1.77;;
76125;SDS011;65174;48.138;21.002;2023-02-01T21:46:12;9.37;;;2.13;;
76125;SDS011;65174;48.138;21.002;2023-02-01T21:49:14;5.35;;;2.63;;
76125;SDS011;65174;48.138;21.002;2023-02-01T21:52:16;4.95;;;2.45;;
76125;SDS011;65174;48.138;21.002;2023-02-01T21:55:18;4.10;;;2.40;;
76125;SDS011;65174;48.138;21.002;2023-02-01T21:58:20;3.97;;;2.92;;
76125;SDS011;65174;48.138;21.002;2023-02-01T22:01:22;5.40;;;2.63;;
76125;SDS011;65174;48.138;21.002;2023-02-01T22:04:24;11.18;;;5.10;;
76125;SDS011;65174;48.138;21.002;2023-02-01T22:07:26;4.18;;;2.22;;
76125;SDS011;65174;48.138;21.002;2023-02-01T22:10:28;3.92;;;2.00;;
76125;SDS011;65174;48.138;21.002;2023-02-01T22:13:30;7.18;;;3.20;;
76125;SDS011;65174;48.138;21.002;2023-02-01T22:16:32;2.87;;;1.70;;
76125;SDS011;65174;48.138;21.002;2023-02-01T22:19:34;5.45;;;2.72;;
76125;SDS011;65174;48.138;21.002;2023-02-01T22:22:36;10.55;;;3.40;;
76125;SDS011;65174;48.138;21.002;2023-02-01T22:25:38;5.18;;;2.08;;
76125;SDS011;65174;48.138;21.002;2023-02-01T22:28:40;5.97;;;2.40;;
76125;SDS011;65174;48.138;21.002;2023-02-01T22:31:42;7.37;;;2.27;;
76125;SDS011;65174;48.138;21.002;2023-02-01T22:34:44;7.30;;;2.40;;
76125;SDS011;65174;48.138;21.002;2023-02-01T22:37:46;8.57;;;3.63;;
76125;SDS011;65174;48.138;21.002;2023-02-01T22:40:54;4.50;;;2.22;;
76125;SDS011;65174;48.138;21.002;2023-02-01T22:44:00;4.45;;;1.85;;
76125;SDS011;65174;48.138;21.002;2023-02-01T22:47:02;4.00;;;2.37;;
76125;SDS011;65174;48.138;21.002;2023-02-01T22:50:04;4.10;;;1.90;;
76125;SDS011;65174;48.138;21.002;2023-02-01T22:53:06;5.63;;;2.17;;
76125;SDS011;65174;48.138;21.002;2023-02-01T22:56:09;3.83;;;1.75;;
76125;SDS011;65174;48.138;21.002;2023-02-01T22:59:12;6.88;;;2.35;;
76125;SDS011;65174;48.138;21.002;2023-02-01T23:02:15;7.60;;;2.20;;
76125;SDS011;65174;48.138;21.002;2023-02-01T23:05:17;4.45;;;2.10;;
76125;SDS011;65174;48.138;21.002;2023-02-01T23:08:20;2.88;;;1.80;;
76125;SDS011;65174;48.138;21.002;2023-02-01T23:11:22;4.30;;;1.80;;
76125;SDS011;65174;48.138;21.002;2023-02-01T23:14:38;3.72;;;2.03;;
76125;SDS011;65174;48.138;21.002;2023-02-01T23:18:00;4.17;;;2.03;;
76125;SDS011;65174;48.138;21.002;2023-02-01T23:21:03;4.75;;;2.22;;
76125;SDS011;65174;48.138;21.002;2023-02-01T23:28:12;3.45;;;2.20;;
76125;SDS011;65174;48.138;21.002;2023-02-01T23:31:14;5.95;;;2.75;;
76125;SDS011;65174;48.138;21.002;2023-02-01T23:34:16;10.73;;;4.20;;
76125;SDS011;65174;48.138;21.002;2023-02-01T23:37:18;9.30;;;3.85;;
76125;SDS011;65174;48.138;21.002;2023-02-01T23:40:20;6.88;;;2.88;;
76125;SDS011;65174;48.138;21.002;2023-02-01T23:43:22;7.43;;;4.03;;
76125;SDS011;65174;48.138;21.002;2023-02-01T23:46:43;5.88;;;2.42;;
76125;SDS011;65174;48.138;21.002;2023-02-01T23:49:47;5.57;;;2.40;;
76125;SDS011;65174;48.138;21.002;2023-02-01T23:52:49;5.78;;;2.80;;
76125;SDS011;65174;48.138;21.002;2023-02-01T23:55:52;7.82;;;2.50;;
76125;SDS011;65174;48.138;21.002;2023-02-01T23:58:55;8.57;;;2.50;;
